Time;durP1;ratioP1;P1;durP2;ratioP2;P2;SDS_P1;SDS_P2;PMS_P1;PMS_P2;Temp;Humidity;BMP_temperature;BMP_pressure;BME280_temperature;BME280_humidity;BME280_pressure;Samples;Min_cycle;Max_cycle;Signal;HPM_P1;HPM_P2
2023/05/22 00:01:21;;;;;;;15.80;7.50;;;15.00;99.90;;;;;;5057703;28;20103;-74
2023/05/22 00:03:49;;;;;;;17.35;7.05;;;15.00;99.90;;;;;;5057810;28;20032;-74
2023/05/22 00:06:17;;;;;;;14.38;7.63;;;15.10;99.90;;;;;;5075861;28;20028;-74
2023/05/22 00:08:42;;;;;;;23.23;7.63;;;15.10;99.90;;;;;;5075658;28;20039;-74
2023/05/22 00:11:08;;;;;;;19.50;7.40;;;15.10;99.90;;;;;;5057674;28;20547;-74
2023/05/22 00:13:34;;;;;;;18.42;8.25;;;16.40;99.90;;;;;;5075568;28;20020;-74
2023/05/22 00:15:59;;;;;;;22.48;8.60;;;15.70;99.90;;;;;;5057620;28;20020;-74
2023/05/22 00:18:28;;;;;;;19.13;7.60;;;;;;;;;;5057587;28;20136;-74
2023/05/22 00:20:54;;;;;;;18.95;7.05;;;15.20;99.90;;;;;;5075565;28;20024;-74
2023/05/22 00:23:20;;;;;;;15.45;7.50;;;15.20;99.90;;;;;;5075368;28;20024;-74
2023/05/22 00:25:46;;;;;;;16.10;7.35;;;;;;;;;;5075430;28;20086;-74
2023/05/22 00:28:12;;;;;;;18.95;7.20;;;;;;;;;;5075301;28;20048;-74
2023/05/22 00:30:38;;;;;;;22.77;8.73;;;;;;;;;;5057375;28;20095;-74
2023/05/22 00:33:04;;;;;;;17.08;7.32;;;15.30;99.90;;;;;;5075304;28;20025;-74
2023/05/22 00:35:30;;;;;;;21.90;8.77;;;15.30;99.90;;;;;;5075218;28;20036;-74
2023/05/22 00:37:56;;;;;;;18.40;8.18;;;15.30;99.90;;;;;;5057158;28;20024;-74
2023/05/22 00:40:21;;;;;;;17.48;7.88;;;15.30;99.90;;;;;;5075152;28;20029;-74
2023/05/22 00:42:47;;;;;;;18.13;8.02;;;15.20;99.90;;;;;;5056927;28;20020;-74
2023/05/22 00:45:16;;;;;;;19.58;9.25;;;15.20;99.90;;;;;;5075062;28;20029;-74
2023/05/22 00:47:42;;;;;;;18.25;8.32;;;15.30;99.90;;;;;;5056859;28;20021;-74
2023/05/22 00:50:10;;;;;;;29.27;9.65;;;15.20;99.90;;;;;;5074723;28;20490;-74
2023/05/22 00:52:40;;;;;;;18.83;8.65;;;15.20;99.90;;;;;;5074913;28;20024;-74
2023/05/22 00:55:07;;;;;;;16.13;8.15;;;15.20;99.90;;;;;;5074786;28;20099;-74
2023/05/22 00:57:33;;;;;;;24.63;10.15;;;15.10;99.90;;;;;;5074808;28;20063;-74
2023/05/22 01:00:01;;;;;;;18.65;8.77;;;15.10;99.90;;;;;;5074597;28;20056;-74
2023/05/22 01:02:31;;;;;;;16.25;8.88;;;15.10;99.90;;;;;;5074491;28;20082;-74
2023/05/22 01:04:57;;;;;;;17.65;9.23;;;15.10;99.90;;;;;;5074588;28;20025;-74
2023/05/22 01:07:23;;;;;;;23.38;10.18;;;15.10;99.90;;;;;;5056635;28;20013;-74
2023/05/22 01:09:49;;;;;;;15.77;8.52;;;15.10;99.90;;;;;;5074525;28;20043;-74
2023/05/22 01:12:51;;;;;;;22.15;9.82;;;15.10;99.90;;;;;;5074372;28;20020;-74
2023/05/22 01:15:16;;;;;;;18.00;8.93;;;15.10;99.90;;;;;;5056540;28;20438;-74
2023/05/22 01:17:47;;;;;;;22.73;9.65;;;15.00;99.90;;;;;;5074170;28;20029;-74
2023/05/22 01:20:35;;;;;;;23.63;9.77;;;15.00;99.90;;;;;;5056410;28;20400;-74
2023/05/22 01:23:19;;;;;;;18.92;8.98;;;15.00;99.90;;;;;;5056365;28;20442;-74
2023/05/22 01:26:22;;;;;;;19.85;8.88;;;15.00;99.90;;;;;;5056234;28;20469;-74
2023/05/22 01:29:15;;;;;;;20.40;9.40;;;14.90;99.90;;;;;;5073945;28;20048;-74
2023/05/22 01:31:44;;;;;;;21.45;9.93;;;14.90;99.90;;;;;;5056154;28;20025;-74
2023/05/22 01:34:11;;;;;;;23.38;9.82;;;14.90;99.90;;;;;;5073985;28;20024;-74
2023/05/22 01:36:37;;;;;;;22.20;9.77;;;;;;;;;;5073887;28;20016;-74
2023/05/22 01:39:05;;;;;;;21.98;9.23;;;14.80;99.90;;;;;;5073792;28;20028;-74
2023/05/22 01:41:33;;;;;;;22.27;10.25;;;14.80;99.90;;;;;;5073790;28;20016;-74
2023/05/22 01:44:00;;;;;;;19.75;10.10;;;14.80;99.90;;;;;;5073798;28;20024;-74
2023/05/22 01:46:29;;;;;;;22.70;10.90;;;14.80;99.90;;;;;;5055932;28;20391;-74
2023/05/22 01:48:55;;;;;;;22.23;9.80;;;14.80;99.90;;;;;;5055707;28;20054;-74
2023/05/22 01:51:39;;;;;;;23.63;10.25;;;14.80;99.90;;;;;;5073659;28;20035;-74
2023/05/22 01:54:22;;;;;;;21.77;9.38;;;14.80;99.90;;;;;;5055753;28;20055;-74
2023/05/22 01:57:11;;;;;;;19.15;9.70;;;14.80;99.90;;;;;;5055688;28;20031;-74
2023/05/22 01:59:47;;;;;;;19.55;9.52;;;14.70;99.90;;;;;;5073082;28;20099;-74
2023/05/22 02:02:16;;;;;;;19.88;9.18;;;14.70;99.90;;;;;;5073598;28;20025;-74
2023/05/22 02:04:47;;;;;;;21.33;8.95;;;14.70;99.90;;;;;;5073419;28;20021;-74
2023/05/22 02:07:14;;;;;;;20.65;9.77;;;14.80;99.90;;;;;;5055581;28;20021;-74
2023/05/22 02:09:41;;;;;;;19.80;10.32;;;14.80;99.90;;;;;;5055345;28;20017;-74
2023/05/22 02:12:07;;;;;;;20.95;11.15;;;14.80;99.90;;;;;;5073415;28;20372;-74
2023/05/22 02:14:35;;;;;;;23.85;10.70;;;14.80;99.90;;;;;;5055420;28;20031;-74
2023/05/22 02:17:02;;;;;;;20.80;10.65;;;14.80;99.90;;;;;;5055480;28;20048;-74
2023/05/22 02:19:27;;;;;;;20.17;9.90;;;14.70;99.90;;;;;;5055323;28;20056;-74
2023/05/22 02:21:53;;;;;;;24.23;9.82;;;14.80;99.90;;;;;;5055294;28;20490;-74
2023/05/22 02:24:19;;;;;;;20.50;9.70;;;14.70;99.90;;;;;;5073253;28;20024;-74
2023/05/22 02:26:46;;;;;;;26.25;10.25;;;14.70;99.90;;;;;;5073262;28;20020;-74
2023/05/22 02:29:12;;;;;;;24.00;10.38;;;14.70;99.90;;;;;;5073156;28;20027;-74
2023/05/22 02:31:37;;;;;;;25.08;11.60;;;14.80;99.90;;;;;;5073269;28;20391;-74
2023/05/22 02:34:05;;;;;;;18.92;9.70;;;14.70;99.90;;;;;;5073144;28;20082;-74
2023/05/22 02:36:31;;;;;;;21.67;10.93;;;14.70;99.90;;;;;;5073104;28;20391;-74
2023/05/22 02:38:57;;;;;;;23.60;12.40;;;14.70;99.90;;;;;;5073044;28;20034;-74
2023/05/22 02:41:23;;;;;;;19.88;10.48;;;14.60;99.90;;;;;;5073026;28;20368;-74
2023/05/22 02:43:50;;;;;;;28.08;11.27;;;;;;;;;;5073043;28;20024;-74
2023/05/22 02:46:15;;;;;;;23.13;10.73;;;14.60;99.90;;;;;;5072995;28;20024;-74
2023/05/22 02:48:41;;;;;;;23.70;10.85;;;14.50;99.90;;;;;;5073282;28;20108;-74
2023/05/22 02:51:06;;;;;;;21.00;9.95;;;14.50;99.90;;;;;;5073066;28;20074;-74
2023/05/22 02:53:34;;;;;;;18.38;9.23;;;14.40;99.90;;;;;;5054964;28;20118;-74
2023/05/22 02:56:00;;;;;;;20.20;9.48;;;15.30;99.90;;;;;;5072909;28;20025;-74
2023/05/22 02:58:25;;;;;;;21.42;10.57;;;14.30;99.90;;;;;;5054914;28;20027;-74
2023/05/22 03:00:52;;;;;;;23.30;10.05;;;14.20;99.90;;;;;;5072992;28;20028;-74
2023/05/22 03:03:18;;;;;;;21.02;10.25;;;14.20;99.90;;;;;;5072780;28;20070;-74
2023/05/22 03:05:44;;;;;;;23.67;9.48;;;14.10;99.90;;;;;;5054903;28;20419;-74
2023/05/22 03:08:10;;;;;;;19.05;9.85;;;14.00;99.90;;;;;;5072809;28;20036;-74
2023/05/22 03:10:36;;;;;;;21.42;10.18;;;14.00;99.90;;;;;;5054768;28;20017;-74
2023/05/22 03:13:02;;;;;;;19.63;9.40;;;13.90;99.90;;;;;;5076566;28;20024;-74
2023/05/22 03:15:28;;;;;;;24.05;11.10;;;13.90;99.90;;;;;;5076709;28;20054;-74
2023/05/22 03:17:53;;;;;;;22.77;9.85;;;13.80;99.90;;;;;;5076502;28;20031;-74
2023/05/22 03:20:19;;;;;;;19.10;9.63;;;13.80;99.90;;;;;;5077146;28;20021;-74
2023/05/22 03:22:47;;;;;;;16.38;9.57;;;13.80;99.90;;;;;;5076496;28;20032;-74
2023/05/22 03:25:13;;;;;;;28.42;10.98;;;13.80;99.90;;;;;;5076494;28;20476;-74
2023/05/22 03:27:39;;;;;;;19.17;9.82;;;13.80;99.90;;;;;;5076625;28;20100;-74
2023/05/22 03:30:06;;;;;;;21.15;9.85;;;14.90;99.90;;;;;;5076311;28;20055;-74
2023/05/22 03:32:36;;;;;;;21.35;10.32;;;13.70;99.90;;;;;;5076294;28;20020;-74
2023/05/22 03:35:02;;;;;;;19.88;9.77;;;13.70;99.90;;;;;;5058321;28;20020;-74
2023/05/22 03:37:27;;;;;;;23.65;10.55;;;13.60;99.90;;;;;;5076293;28;20117;-74
2023/05/22 03:39:53;;;;;;;20.98;10.80;;;13.50;99.90;;;;;;5076638;28;20050;-74
2023/05/22 03:42:19;;;;;;;22.25;9.68;;;13.60;99.90;;;;;;5076094;28;20527;-74
2023/05/22 03:44:44;;;;;;;24.02;10.55;;;13.50;99.90;;;;;;5076132;28;20094;-74
2023/05/22 03:47:10;;;;;;;23.33;10.77;;;14.40;99.90;;;;;;5058169;28;20504;-74
2023/05/22 03:49:36;;;;;;;24.98;11.38;;;13.50;99.90;;;;;;5075974;28;20464;-74
2023/05/22 03:52:02;;;;;;;19.15;10.55;;;13.50;99.90;;;;;;5075968;28;20031;-74
2023/05/22 03:54:28;;;;;;;24.92;11.18;;;13.50;99.90;;;;;;5058272;28;20027;-74
2023/05/22 03:56:53;;;;;;;22.42;11.43;;;13.60;99.90;;;;;;5075935;28;20028;-74
2023/05/22 03:59:19;;;;;;;22.83;10.40;;;13.40;99.90;;;;;;5075952;28;20060;-74
2023/05/22 04:01:45;;;;;;;20.77;10.90;;;14.50;99.90;;;;;;5075832;28;20035;-74
2023/05/22 04:04:11;;;;;;;19.88;10.57;;;13.50;99.90;;;;;;5075881;28;20383;-74
2023/05/22 04:06:41;;;;;;;24.65;10.10;;;13.50;99.90;;;;;;5075816;28;20099;-74
2023/05/22 04:09:11;;;;;;;21.75;10.93;;;13.50;99.90;;;;;;5075672;28;20472;-74
2023/05/22 04:11:41;;;;;;;19.38;10.65;;;13.50;99.90;;;;;;5075573;28;20070;-74
2023/05/22 04:14:07;;;;;;;24.67;11.13;;;13.50;99.90;;;;;;5057640;28;20025;-74
2023/05/22 04:16:33;;;;;;;21.60;10.57;;;13.50;99.90;;;;;;5075514;28;20036;-74
2023/05/22 04:19:02;;;;;;;22.80;11.50;;;13.50;99.90;;;;;;5075494;28;20376;-74
2023/05/22 04:21:29;;;;;;;25.20;12.55;;;13.60;99.90;;;;;;5075372;28;20027;-74
2023/05/22 04:23:55;;;;;;;24.65;12.13;;;13.50;99.90;;;;;;5074865;28;20065;-74
2023/05/22 04:26:20;;;;;;;23.58;11.15;;;13.60;99.90;;;;;;5057476;28;20434;-74
2023/05/22 04:28:46;;;;;;;21.95;11.15;;;13.50;99.90;;;;;;5075292;28;20483;-74
2023/05/22 04:31:14;;;;;;;20.13;11.00;;;13.60;99.90;;;;;;5075300;28;20023;-74
2023/05/22 04:33:40;;;;;;;19.50;10.55;;;13.50;99.90;;;;;;5075288;28;20060;-74
2023/05/22 04:36:08;;;;;;;23.15;10.93;;;13.60;99.90;;;;;;5057304;28;20428;-74
2023/05/22 04:38:35;;;;;;;31.50;13.48;;;13.70;99.90;;;;;;5057184;28;20024;-74
2023/05/22 04:41:07;;;;;;;23.35;12.07;;;13.70;99.90;;;;;;5075256;28;20055;-74
2023/05/22 04:43:33;;;;;;;26.55;12.75;;;13.80;99.90;;;;;;5075004;28;20020;-74
2023/05/22 04:45:59;;;;;;;25.10;12.40;;;13.80;99.90;;;;;;5075097;28;20023;-74
2023/05/22 04:48:24;;;;;;;27.30;12.82;;;13.80;99.90;;;;;;5075029;28;20103;-74
2023/05/22 04:50:50;;;;;;;22.45;11.90;;;13.80;99.90;;;;;;5075504;28;20539;-74
2023/05/22 04:53:16;;;;;;;23.58;12.05;;;15.00;99.90;;;;;;5074904;28;20028;-74
2023/05/22 04:55:42;;;;;;;31.48;12.80;;;14.60;99.90;;;;;;5056985;28;20365;-74
2023/05/22 04:58:08;;;;;;;25.02;11.95;;;13.90;99.90;;;;;;5056830;28;20074;-74
2023/05/22 05:00:34;;;;;;;24.52;12.57;;;14.00;99.90;;;;;;5056802;28;20090;-74
2023/05/22 05:02:59;;;;;;;26.83;11.98;;;14.10;99.90;;;;;;5074531;28;20027;-74
2023/05/22 05:05:25;;;;;;;29.60;12.57;;;15.20;99.90;;;;;;5056695;28;20119;-74
2023/05/22 05:07:52;;;;;;;29.73;12.82;;;14.20;99.90;;;;;;5075045;28;20020;-74
2023/05/22 05:10:17;;;;;;;23.10;12.13;;;14.20;99.90;;;;;;5074502;28;20017;-74
2023/05/22 05:12:43;;;;;;;21.85;12.68;;;14.30;99.90;;;;;;5074467;28;20031;-74
2023/05/22 05:15:09;;;;;;;26.52;12.25;;;14.30;99.90;;;;;;5074458;28;20032;-74
2023/05/22 05:17:35;;;;;;;24.25;12.23;;;14.40;99.90;;;;;;5074328;28;20110;-74
2023/05/22 05:20:01;;;;;;;24.65;11.40;;;14.60;99.90;;;;;;5074281;28;20040;-74
2023/05/22 05:22:26;;;;;;;24.95;11.95;;;14.60;99.90;;;;;;5074083;28;20020;-74
2023/05/22 05:24:52;;;;;;;29.15;12.40;;;14.60;99.90;;;;;;5074238;28;20503;-75
2023/05/22 05:27:17;;;;;;;23.45;11.55;;;14.90;99.90;;;;;;5056169;28;20020;-75
2023/05/22 05:29:43;;;;;;;30.85;11.25;;;14.70;99.90;;;;;;5073984;28;20025;-76
2023/05/22 05:32:10;;;;;;;29.55;13.40;;;14.70;99.90;;;;;;5074043;28;20111;-74
2023/05/22 05:34:35;;;;;;;23.30;11.48;;;14.80;99.90;;;;;;5073183;28;20104;-75
2023/05/22 05:37:01;;;;;;;29.80;13.38;;;14.80;99.90;;;;;;5073919;28;20553;-75
2023/05/22 05:39:27;;;;;;;21.38;12.80;;;14.90;99.90;;;;;;5073968;28;20086;-75
2023/05/22 05:41:52;;;;;;;25.00;12.13;;;15.00;99.90;;;;;;5073805;28;20031;-75
2023/05/22 05:44:18;;;;;;;23.55;11.77;;;15.10;99.90;;;;;;5073883;28;20024;-75
2023/05/22 05:46:44;;;;;;;26.35;12.55;;;16.00;99.90;;;;;;5074031;28;20379;-75
2023/05/22 05:49:10;;;;;;;22.83;12.05;;;15.30;99.90;;;;;;5073794;28;20506;-75
2023/05/22 05:51:36;;;;;;;20.80;10.70;;;16.30;99.90;;;;;;5073977;28;20074;-75
2023/05/22 05:54:03;;;;;;;26.05;12.57;;;15.50;99.90;;;;;;5073686;28;20043;-75
2023/05/22 05:56:28;;;;;;;24.60;11.95;;;15.60;99.90;;;;;;5073514;28;20021;-75
2023/05/22 05:58:54;;;;;;;20.05;11.10;;;15.80;99.90;;;;;;5072236;28;20025;-75
2023/05/22 06:01:23;;;;;;;23.92;12.05;;;15.90;99.90;;;;;;5072194;28;20024;-75
2023/05/22 06:03:49;;;;;;;28.83;11.70;;;15.90;99.90;;;;;;5072629;28;20019;-75
2023/05/22 06:06:16;;;;;;;24.27;12.07;;;16.10;99.90;;;;;;5073199;28;20499;-75
2023/05/22 06:08:42;;;;;;;28.95;12.40;;;16.20;99.90;;;;;;5053991;28;20227;-75
2023/05/22 06:11:08;;;;;;;23.23;10.50;;;16.20;99.90;;;;;;5055464;28;20065;-75
2023/05/22 06:13:33;;;;;;;23.52;11.32;;;16.60;99.90;;;;;;5055520;28;20024;-74
2023/05/22 06:15:59;;;;;;;21.52;11.50;;;17.50;99.90;;;;;;5055500;28;20025;-75
2023/05/22 06:18:24;;;;;;;23.42;11.38;;;16.70;99.90;;;;;;5073774;28;20032;-75
2023/05/22 06:20:51;;;;;;;22.77;10.85;;;16.70;99.90;;;;;;5073343;28;20396;-75
2023/05/22 06:23:17;;;;;;;22.02;11.45;;;17.20;99.90;;;;;;5073264;28;20031;-75
2023/05/22 06:25:43;;;;;;;19.38;10.68;;;16.90;99.90;;;;;;5073236;28;20095;-75
2023/05/22 06:28:09;;;;;;;22.02;10.70;;;17.00;99.90;;;;;;5056002;28;20052;-75
2023/05/22 06:30:35;;;;;;;22.15;11.30;;;17.10;99.90;;;;;;5055334;28;20017;-75
2023/05/22 06:33:02;;;;;;;21.23;10.95;;;17.10;99.90;;;;;;5073272;28;20032;-75
2023/05/22 06:35:28;;;;;;;21.08;10.88;;;17.30;99.90;;;;;;5073174;28;20028;-75
2023/05/22 06:37:54;;;;;;;20.85;10.98;;;17.50;99.90;;;;;;5073094;28;20027;-75
2023/05/22 06:40:20;;;;;;;22.15;11.80;;;17.50;99.90;;;;;;5073169;28;20427;-75
2023/05/22 06:42:45;;;;;;;20.25;10.90;;;17.60;99.90;;;;;;5055108;28;20556;-75
2023/05/22 06:45:11;;;;;;;21.08;10.65;;;17.80;99.90;;;;;;5055166;28;20054;-75
2023/05/22 06:47:37;;;;;;;21.08;10.48;;;;;;;;;;5060661;28;20024;-75
2023/05/22 06:50:03;;;;;;;19.00;10.57;;;17.90;99.90;;;;;;5079591;28;20119;-75
2023/05/22 06:52:30;;;;;;;19.55;9.65;;;18.00;99.90;;;;;;5079684;28;20024;-75
2023/05/22 06:55:03;;;;;;;20.98;9.70;;;18.10;99.90;;;;;;5079629;28;20056;-75
2023/05/22 06:57:29;;;;;;;24.52;10.43;;;18.10;99.90;;;;;;5080268;28;20016;-75
2023/05/22 06:59:55;;;;;;;23.33;10.63;;;18.20;99.90;;;;;;5061663;28;20029;-75
2023/05/22 07:02:20;;;;;;;19.80;9.93;;;18.30;99.90;;;;;;5079835;28;20029;-75
2023/05/22 07:04:46;;;;;;;18.23;9.68;;;18.50;99.90;;;;;;5079603;28;20510;-75
2023/05/22 07:07:11;;;;;;;27.98;9.85;;;18.50;99.90;;;;;;5080204;28;20020;-75
2023/05/22 07:09:37;;;;;;;17.05;9.57;;;18.60;99.90;;;;;;5061394;28;20024;-75
2023/05/22 07:12:02;;;;;;;19.70;9.55;;;18.70;99.90;;;;;;5061549;28;20032;-75
2023/05/22 07:14:28;;;;;;;18.80;10.07;;;18.90;99.90;;;;;;5080133;28;20035;-75
2023/05/22 07:16:54;;;;;;;18.00;9.60;;;18.70;99.90;;;;;;5080127;28;20033;-75
2023/05/22 07:19:20;;;;;;;15.55;9.13;;;18.90;99.90;;;;;;5079614;28;20032;-75
2023/05/22 07:21:45;;;;;;;15.98;9.05;;;19.00;99.90;;;;;;5061436;28;20142;-75
2023/05/22 07:24:11;;;;;;;19.70;10.00;;;19.10;99.90;;;;;;5061767;28;20435;-75
2023/05/22 07:26:37;;;;;;;23.70;9.60;;;19.10;99.90;;;;;;5061603;28;20021;-75
2023/05/22 07:29:03;;;;;;;20.65;10.35;;;19.40;99.90;;;;;;5079631;28;20016;-75
2023/05/22 07:31:33;;;;;;;18.40;8.80;;;19.40;99.90;;;;;;5079509;28;20107;-75
2023/05/22 07:33:59;;;;;;;16.63;8.60;;;19.60;99.90;;;;;;5079529;28;20027;-75
2023/05/22 07:36:24;;;;;;;16.23;8.63;;;19.70;99.90;;;;;;5079600;28;20016;-75
2023/05/22 07:38:50;;;;;;;15.63;8.32;;;19.90;99.90;;;;;;5079932;28;20021;-75
2023/05/22 07:41:16;;;;;;;22.02;9.73;;;19.90;99.90;;;;;;5061769;28;20082;-75
2023/05/22 07:43:42;;;;;;;22.63;9.63;;;20.00;99.90;;;;;;5079556;28;20035;-75
2023/05/22 07:46:08;;;;;;;17.83;9.75;;;20.10;99.90;;;;;;5080053;28;20095;-75
2023/05/22 07:48:33;;;;;;;17.80;9.05;;;20.10;99.90;;;;;;5079078;28;20494;-75
2023/05/22 07:50:59;;;;;;;20.70;9.63;;;20.20;99.90;;;;;;5079401;28;20024;-75
2023/05/22 07:53:25;;;;;;;18.17;8.90;;;20.20;99.90;;;;;;5079490;28;20020;-75
2023/05/22 07:55:50;;;;;;;15.68;8.32;;;20.90;99.90;;;;;;5061618;28;20021;-77
2023/05/22 07:58:16;;;;;;;17.58;9.63;;;20.60;99.90;;;;;;5059450;28;20493;-78
2023/05/22 08:00:41;;;;;;;22.30;9.48;;;20.70;99.90;;;;;;5077119;28;20048;-78
2023/05/22 08:03:07;;;;;;;18.02;9.00;;;20.80;99.90;;;;;;5076770;28;20048;-78
2023/05/22 08:05:32;;;;;;;15.38;8.20;;;21.00;99.90;;;;;;5076918;28;20491;-77
2023/05/22 08:07:58;;;;;;;14.65;8.52;;;21.10;99.90;;;;;;5076933;28;20424;-77
2023/05/22 08:10:24;;;;;;;15.50;7.70;;;21.20;99.90;;;;;;5076466;28;20051;-78
2023/05/22 08:12:49;;;;;;;21.77;9.57;;;21.30;99.90;;;;;;5076900;28;20020;-78
2023/05/22 08:15:15;;;;;;;14.40;7.88;;;21.40;99.90;;;;;;5076720;28;20031;-77
2023/05/22 08:17:40;;;;;;;13.48;8.48;;;21.60;99.90;;;;;;5076863;28;20021;-78
2023/05/22 08:20:07;;;;;;;14.93;8.75;;;21.60;99.90;;;;;;5058686;28;20020;-77
2023/05/22 08:22:33;;;;;;;16.83;8.48;;;21.80;99.90;;;;;;5076484;28;20025;-78
2023/05/22 08:24:59;;;;;;;15.85;7.72;;;21.90;99.90;;;;;;5076715;28;20066;-77
2023/05/22 08:27:25;;;;;;;13.25;7.13;;;22.10;99.90;;;;;;5076742;28;20101;-78
2023/05/22 08:29:51;;;;;;;15.55;9.13;;;22.40;99.90;;;;;;5058604;28;20017;-78
2023/05/22 08:32:16;;;;;;;15.18;8.40;;;22.90;99.90;;;;;;5076417;28;20085;-78
2023/05/22 08:34:42;;;;;;;13.93;7.88;;;22.50;99.90;;;;;;5076454;28;20065;-78
2023/05/22 08:37:08;;;;;;;15.20;8.48;;;22.50;99.90;;;;;;5058179;28;20059;-77
2023/05/22 08:39:33;;;;;;;18.70;8.23;;;22.60;99.90;;;;;;5076393;28;20048;-78
2023/05/22 08:42:01;;;;;;;14.18;7.78;;;22.80;99.90;;;;;;5076297;28;20036;-78
2023/05/22 08:44:26;;;;;;;15.13;7.38;;;22.90;99.90;;;;;;5075898;28;20024;-77
2023/05/22 08:46:55;;;;;;;15.18;8.27;;;22.90;99.90;;;;;;5076164;28;20028;-78
2023/05/22 08:49:21;;;;;;;;;;;22.90;99.90;;;;;;5076532;28;20506;-77
2023/05/22 08:51:53;;;;;;;13.90;7.57;;;22.90;99.90;;;;;;5076203;28;20007;-78
2023/05/22 08:54:21;;;;;;;11.85;6.97;;;23.10;99.90;;;;;;5057815;28;20033;-78
2023/05/22 08:56:48;;;;;;;14.23;7.70;;;23.10;99.90;;;;;;5075777;28;20021;-78
2023/05/22 08:59:14;;;;;;;10.93;7.05;;;23.20;99.90;;;;;;5057858;28;20025;-78
2023/05/22 09:01:40;;;;;;;12.05;7.20;;;23.20;99.90;;;;;;5057944;28;20031;-78
2023/05/22 09:04:06;;;;;;;15.25;8.32;;;23.20;99.90;;;;;;5057688;28;20025;-78
2023/05/22 09:06:31;;;;;;;16.10;8.45;;;23.20;99.90;;;;;;5057617;28;20078;-78
2023/05/22 09:09:01;;;;;;;13.02;7.40;;;23.20;99.90;;;;;;5075463;28;20028;-78
2023/05/22 09:11:27;;;;;;;11.60;6.72;;;23.30;99.90;;;;;;5075661;28;20040;-78
2023/05/22 09:14:09;;;;;;;11.93;7.15;;;23.30;99.90;;;;;;5075398;28;20013;-78
2023/05/22 09:16:48;;;;;;;14.30;7.50;;;23.40;99.90;;;;;;5057389;28;20012;-78
2023/05/22 09:19:14;;;;;;;17.30;8.90;;;23.70;99.90;;;;;;5057484;28;20396;-78
2023/05/22 09:21:40;;;;;;;12.68;7.88;;;23.50;99.90;;;;;;5075198;28;20023;-78
2023/05/22 09:24:08;;;;;;;18.42;8.52;;;23.40;99.90;;;;;;5075761;28;20031;-78
2023/05/22 09:26:34;;;;;;;15.63;8.75;;;23.60;99.90;;;;;;5075087;28;20066;-78
2023/05/22 09:29:00;;;;;;;14.07;8.05;;;23.90;99.90;;;;;;5057252;28;20484;-78
2023/05/22 09:31:28;;;;;;;16.08;9.07;;;24.00;99.90;;;;;;5075263;28;20383;-77
2023/05/22 09:33:54;;;;;;;15.05;7.60;;;24.00;99.90;;;;;;5057030;28;20020;-77
2023/05/22 09:36:21;;;;;;;14.52;8.63;;;23.90;99.90;;;;;;5075526;28;20020;-78
2023/05/22 09:38:46;;;;;;;16.92;8.98;;;24.00;99.90;;;;;;5075149;28;20071;-78
2023/05/22 09:41:12;;;;;;;13.73;8.55;;;24.00;99.90;;;;;;5075354;28;20051;-77
2023/05/22 09:43:37;;;;;;;15.50;8.05;;;24.40;99.90;;;;;;5075017;28;20017;-78
2023/05/22 09:46:03;;;;;;;19.73;8.63;;;24.30;99.90;;;;;;5074623;28;20031;-78
2023/05/22 09:48:36;;;;;;;12.43;8.15;;;24.10;99.90;;;;;;5056642;28;20103;-78
2023/05/22 09:51:02;;;;;;;15.57;9.27;;;24.10;99.90;;;;;;5075605;28;20111;-77
2023/05/22 09:53:31;;;;;;;14.65;7.93;;;23.80;99.90;;;;;;5074978;28;20066;-78
2023/05/22 09:55:58;;;;;;;13.32;8.75;;;23.80;99.90;;;;;;5056771;28;20027;-77
2023/05/22 09:58:26;;;;;;;14.02;8.40;;;23.90;99.90;;;;;;5056787;28;20170;-78
2023/05/22 10:00:55;;;;;;;16.67;7.90;;;24.00;99.90;;;;;;5075027;28;20039;-78
2023/05/22 10:03:23;;;;;;;12.60;7.85;;;24.30;99.90;;;;;;5074412;28;20032;-77
2023/05/22 10:05:51;;;;;;;13.50;7.55;;;24.60;99.90;;;;;;5075133;28;20040;-78
2023/05/22 10:08:20;;;;;;;15.13;8.27;;;24.50;99.90;;;;;;5074802;28;20024;-78
2023/05/22 10:10:51;;;;;;;14.27;7.97;;;24.50;99.90;;;;;;5074595;28;20387;-78
2023/05/22 10:13:17;;;;;;;14.00;9.15;;;24.50;99.90;;;;;;5075193;28;20499;-78
2023/05/22 10:15:43;;;;;;;14.52;8.32;;;24.30;99.90;;;;;;5074834;28;20471;-78
2023/05/22 10:18:10;;;;;;;14.70;8.43;;;24.50;99.90;;;;;;5056279;28;20024;-78
2023/05/22 10:20:36;;;;;;;15.05;7.93;;;24.60;99.90;;;;;;5074384;28;20108;-77
2023/05/22 10:23:02;;;;;;;11.80;7.65;;;24.90;99.90;;;;;;5074080;28;20507;-77
2023/05/22 10:25:29;;;;;;;13.15;8.07;;;24.90;99.90;;;;;;5074505;28;20027;-78
2023/05/22 10:27:55;;;;;;;16.85;8.30;;;24.90;99.90;;;;;;5056020;28;20426;-77
2023/05/22 10:30:39;;;;;;;15.60;7.53;;;24.90;99.90;;;;;;5074061;28;20019;-77
2023/05/22 10:33:16;;;;;;;16.50;7.57;;;25.10;99.90;;;;;;5073887;28;20025;-78
2023/05/22 10:36:06;;;;;;;13.93;8.60;;;25.30;99.90;;;;;;5074102;28;20032;-77
2023/05/22 10:39:09;;;;;;;13.13;7.88;;;25.60;99.90;;;;;;5056099;28;20052;-77
2023/05/22 10:41:35;;;;;;;14.10;7.50;;;25.70;99.90;;;;;;5073755;28;20024;-77
2023/05/22 10:44:01;;;;;;;11.25;6.90;;;25.80;99.90;;;;;;5074400;28;20368;-78
2023/05/22 10:46:32;;;;;;;11.68;7.20;;;25.80;99.90;;;;;;5074249;28;20070;-78
2023/05/22 10:48:57;;;;;;;12.45;7.28;;;25.50;99.90;;;;;;5055992;28;20029;-77
2023/05/22 10:51:24;;;;;;;18.40;8.40;;;25.50;99.90;;;;;;5074014;28;20463;-78
2023/05/22 10:53:57;;;;;;;14.25;6.07;;;25.40;99.90;;;;;;5056469;28;20504;-79
2023/05/22 10:56:30;;;;;;;11.48;7.30;;;25.50;99.90;;;;;;5056080;28;20024;-77
2023/05/22 10:59:01;;;;;;;14.93;7.90;;;25.80;99.90;;;;;;5073696;28;20064;-78
2023/05/22 11:01:27;;;;;;;13.32;7.57;;;26.40;99.90;;;;;;5074098;28;20028;-77
2023/05/22 11:03:55;;;;;;;11.52;7.18;;;26.40;99.90;;;;;;5073457;28;20036;-77
2023/05/22 11:06:47;;;;;;;11.10;6.90;;;26.90;99.90;;;;;;5073635;28;20021;-77
2023/05/22 11:09:29;;;;;;;13.77;6.90;;;26.90;99.90;;;;;;5073609;28;20042;-77
2023/05/22 11:12:19;;;;;;;10.10;5.93;;;26.80;99.90;;;;;;5055554;28;20067;-77
2023/05/22 11:14:52;;;;;;;13.35;6.38;;;27.00;99.90;;;;;;5073507;28;20503;-77
2023/05/22 11:17:27;;;;;;;12.10;7.28;;;27.20;99.90;;;;;;5055382;28;20027;-77
2023/05/22 11:20:04;;;;;;;12.18;7.03;;;27.30;99.90;;;;;;5073467;28;20029;-77
2023/05/22 11:22:38;;;;;;;11.40;6.38;;;27.50;99.90;;;;;;5073400;28;20107;-77
2023/05/22 11:25:07;;;;;;;9.90;5.85;;;27.70;99.90;;;;;;5073709;28;20073;-77
2023/05/22 11:27:34;;;;;;;14.48;6.68;;;27.80;99.90;;;;;;5055504;28;20016;-77
2023/05/22 11:30:00;;;;;;;10.10;6.10;;;27.70;99.90;;;;;;5055929;28;20017;-77
2023/05/22 11:32:26;;;;;;;15.10;7.10;;;27.60;99.90;;;;;;5073799;28;20024;-77
2023/05/22 11:34:54;;;;;;;9.40;6.20;;;27.70;99.90;;;;;;5076734;28;20031;-77
2023/05/22 11:37:19;;;;;;;10.47;6.53;;;27.70;99.90;;;;;;5077298;28;20028;-77
2023/05/22 11:39:50;;;;;;;13.40;7.25;;;27.90;99.90;;;;;;5059076;28;20032;-78
2023/05/22 11:42:17;;;;;;;12.63;7.78;;;27.70;99.90;;;;;;5076752;28;20031;-78
2023/05/22 11:44:43;;;;;;;11.43;7.23;;;27.60;99.90;;;;;;5076935;28;20022;-78
2023/05/22 11:47:08;;;;;;;12.27;5.88;;;27.60;99.90;;;;;;5059060;28;20020;-77
2023/05/22 11:49:34;;;;;;;10.88;7.28;;;27.90;99.90;;;;;;5076556;28;20029;-77
2023/05/22 11:51:59;;;;;;;9.32;5.82;;;27.90;99.90;;;;;;5076759;28;20388;-78
2023/05/22 11:54:25;;;;;;;11.93;6.40;;;28.20;99.90;;;;;;5058815;28;20036;-78
2023/05/22 11:56:51;;;;;;;9.20;5.75;;;28.50;99.90;;;;;;5076834;28;20020;-77
2023/05/22 11:59:19;;;;;;;13.02;6.35;;;28.80;99.90;;;;;;5076829;28;20028;-77
2023/05/22 12:01:48;;;;;;;12.35;6.85;;;29.00;99.90;;;;;;5058846;28;20058;-78
2023/05/22 12:04:14;;;;;;;9.85;6.10;;;29.00;99.90;;;;;;5076695;28;20052;-77
2023/05/22 12:06:41;;;;;;;11.00;6.93;;;29.10;99.90;;;;;;5058688;28;20024;-78
2023/05/22 12:09:07;;;;;;;8.77;5.68;;;29.40;99.90;;;;;;5076709;28;20025;-78
2023/05/22 12:11:36;;;;;;;7.82;5.05;;;29.60;99.90;;;;;;5076706;28;20024;-78
2023/05/22 12:14:05;;;;;;;12.82;5.47;;;29.60;99.50;;;;;;5058366;28;20101;-78
2023/05/22 12:16:35;;;;;;;9.68;5.97;;;29.60;99.90;;;;;;5076352;28;20379;-77
2023/05/22 12:19:11;;;;;;;8.98;4.93;;;29.70;99.90;;;;;;5058298;28;20035;-77
2023/05/22 12:21:40;;;;;;;11.82;6.22;;;29.80;99.40;;;;;;5076073;28;20103;-77
2023/05/22 12:24:07;;;;;;;5.82;4.22;;;29.60;97.30;;;;;;5076302;28;20480;-78
2023/05/22 12:26:32;;;;;;;6.80;4.70;;;30.00;98.30;;;;;;5058083;28;20020;-77
2023/05/22 12:29:01;;;;;;;7.88;4.20;;;29.90;98.20;;;;;;5076218;28;20036;-78
2023/05/22 12:31:27;;;;;;;9.90;5.30;;;30.00;98.30;;;;;;5076159;28;20013;-77
2023/05/22 12:33:56;;;;;;;12.82;5.68;;;30.00;97.60;;;;;;5076107;28;20030;-77
2023/05/22 12:36:34;;;;;;;10.57;4.75;;;30.10;97.50;;;;;;5076078;28;20449;-77
2023/05/22 12:39:06;;;;;;;9.32;5.35;;;29.70;96.60;;;;;;5075818;28;20024;-77